sensor_id;sensor_type;location;lat;lon;timestamp;P1;durP1;ratioP1;P2;durP2;ratioP2
85314;SDS011;75718;50.886;11.656;2024-01-15T00:01:58;13.57;;;5.93;;
85314;SDS011;75718;50.886;11.656;2024-01-15T00:04:24;9.73;;;5.27;;
85314;SDS011;75718;50.886;11.656;2024-01-15T00:06:49;9.98;;;5.53;;
85314;SDS011;75718;50.886;11.656;2024-01-15T00:09:15;12.52;;;5.90;;
85314;SDS011;75718;50.886;11.656;2024-01-15T00:11:40;14.02;;;6.75;;
85314;SDS011;75718;50.886;11.656;2024-01-15T00:14:06;12.83;;;5.60;;
85314;SDS011;75718;50.886;11.656;2024-01-15T00:16:31;13.63;;;6.75;;
85314;SDS011;75718;50.886;11.656;2024-01-15T00:18:56;16.10;;;6.50;;
85314;SDS011;75718;50.886;11.656;2024-01-15T00:21:22;17.42;;;6.43;;
85314;SDS011;75718;50.886;11.656;2024-01-15T00:23:48;14.70;;;6.20;;
85314;SDS011;75718;50.886;11.656;2024-01-15T00:26:13;12.00;;;6.10;;
85314;SDS011;75718;50.886;11.656;2024-01-15T00:28:38;15.17;;;6.40;;
85314;SDS011;75718;50.886;11.656;2024-01-15T00:31:04;17.20;;;7.10;;
85314;SDS011;75718;50.886;11.656;2024-01-15T00:33:30;14.35;;;6.53;;
85314;SDS011;75718;50.886;11.656;2024-01-15T00:35:55;20.13;;;7.50;;
85314;SDS011;75718;50.886;11.656;2024-01-15T00:38:20;11.60;;;6.10;;
85314;SDS011;75718;50.886;11.656;2024-01-15T00:40:46;15.87;;;7.33;;
85314;SDS011;75718;50.886;11.656;2024-01-15T00:43:11;13.68;;;6.78;;
85314;SDS011;75718;50.886;11.656;2024-01-15T00:45:37;12.17;;;6.00;;
85314;SDS011;75718;50.886;11.656;2024-01-15T00:48:02;12.30;;;6.38;;
85314;SDS011;75718;50.886;11.656;2024-01-15T00:50:28;16.05;;;6.32;;
85314;SDS011;75718;50.886;11.656;2024-01-15T00:52:54;14.13;;;7.22;;
85314;SDS011;75718;50.886;11.656;2024-01-15T00:55:19;13.38;;;7.30;;
85314;SDS011;75718;50.886;11.656;2024-01-15T00:57:44;10.83;;;6.03;;
85314;SDS011;75718;50.886;11.656;2024-01-15T01:00:10;17.73;;;6.73;;
85314;SDS011;75718;50.886;11.656;2024-01-15T01:02:35;13.27;;;6.57;;
85314;SDS011;75718;50.886;11.656;2024-01-15T01:05:01;13.33;;;7.30;;
85314;SDS011;75718;50.886;11.656;2024-01-15T01:07:26;13.33;;;6.77;;
85314;SDS011;75718;50.886;11.656;2024-01-15T01:09:51;16.63;;;7.07;;
85314;SDS011;75718;50.886;11.656;2024-01-15T01:12:17;17.63;;;7.13;;
85314;SDS011;75718;50.886;11.656;2024-01-15T01:14:42;13.90;;;6.90;;
85314;SDS011;75718;50.886;11.656;2024-01-15T01:17:07;18.47;;;8.20;;
85314;SDS011;75718;50.886;11.656;2024-01-15T01:19:32;12.50;;;7.33;;
85314;SDS011;75718;50.886;11.656;2024-01-15T01:21:57;12.70;;;6.10;;
85314;SDS011;75718;50.886;11.656;2024-01-15T01:24:23;14.10;;;6.37;;
85314;SDS011;75718;50.886;11.656;2024-01-15T01:26:48;14.87;;;7.70;;
85314;SDS011;75718;50.886;11.656;2024-01-15T01:29:14;14.32;;;8.65;;
85314;SDS011;75718;50.886;11.656;2024-01-15T01:31:45;15.63;;;7.70;;
85314;SDS011;75718;50.886;11.656;2024-01-15T01:34:13;19.05;;;7.93;;
85314;SDS011;75718;50.886;11.656;2024-01-15T01:36:39;14.60;;;7.35;;
85314;SDS011;75718;50.886;11.656;2024-01-15T01:39:04;16.07;;;7.33;;
85314;SDS011;75718;50.886;11.656;2024-01-15T01:41:30;16.95;;;7.38;;
85314;SDS011;75718;50.886;11.656;2024-01-15T01:43:55;15.23;;;7.85;;
85314;SDS011;75718;50.886;11.656;2024-01-15T01:46:21;11.70;;;6.20;;
85314;SDS011;75718;50.886;11.656;2024-01-15T01:48:46;11.88;;;5.93;;
85314;SDS011;75718;50.886;11.656;2024-01-15T01:51:12;15.65;;;7.35;;
85314;SDS011;75718;50.886;11.656;2024-01-15T01:53:37;13.60;;;5.93;;
85314;SDS011;75718;50.886;11.656;2024-01-15T01:56:03;14.90;;;6.97;;
85314;SDS011;75718;50.886;11.656;2024-01-15T01:58:29;15.95;;;8.25;;
85314;SDS011;75718;50.886;11.656;2024-01-15T02:00:57;12.93;;;5.57;;
85314;SDS011;75718;50.886;11.656;2024-01-15T02:03:23;14.57;;;6.55;;
85314;SDS011;75718;50.886;11.656;2024-01-15T02:05:49;12.35;;;6.00;;
85314;SDS011;75718;50.886;11.656;2024-01-15T02:08:15;15.52;;;6.15;;
85314;SDS011;75718;50.886;11.656;2024-01-15T02:10:40;13.97;;;7.30;;
85314;SDS011;75718;50.886;11.656;2024-01-15T02:13:06;13.50;;;5.23;;
85314;SDS011;75718;50.886;11.656;2024-01-15T02:15:31;16.05;;;7.93;;
85314;SDS011;75718;50.886;11.656;2024-01-15T02:18:00;10.60;;;5.37;;
85314;SDS011;75718;50.886;11.656;2024-01-15T02:20:28;16.73;;;6.70;;
85314;SDS011;75718;50.886;11.656;2024-01-15T02:22:53;17.75;;;7.15;;
85314;SDS011;75718;50.886;11.656;2024-01-15T02:25:19;14.02;;;6.60;;
85314;SDS011;75718;50.886;11.656;2024-01-15T02:27:44;13.75;;;7.10;;
85314;SDS011;75718;50.886;11.656;2024-01-15T02:30:11;15.20;;;7.43;;
85314;SDS011;75718;50.886;11.656;2024-01-15T02:32:37;17.70;;;6.63;;
85314;SDS011;75718;50.886;11.656;2024-01-15T02:35:03;17.23;;;7.20;;
85314;SDS011;75718;50.886;11.656;2024-01-15T02:37:29;14.35;;;6.93;;
85314;SDS011;75718;50.886;11.656;2024-01-15T02:39:54;15.87;;;7.63;;
85314;SDS011;75718;50.886;11.656;2024-01-15T02:42:19;9.43;;;4.40;;
85314;SDS011;75718;50.886;11.656;2024-01-15T02:44:45;18.77;;;6.73;;
85314;SDS011;75718;50.886;11.656;2024-01-15T02:47:10;15.03;;;6.97;;
85314;SDS011;75718;50.886;11.656;2024-01-15T02:49:35;16.27;;;7.00;;
85314;SDS011;75718;50.886;11.656;2024-01-15T02:52:00;16.70;;;8.03;;
85314;SDS011;75718;50.886;11.656;2024-01-15T02:54:26;13.97;;;6.60;;
85314;SDS011;75718;50.886;11.656;2024-01-15T02:56:51;16.60;;;7.37;;
85314;SDS011;75718;50.886;11.656;2024-01-15T02:59:16;14.13;;;6.93;;
85314;SDS011;75718;50.886;11.656;2024-01-15T03:01:41;18.17;;;7.67;;
85314;SDS011;75718;50.886;11.656;2024-01-15T03:04:07;13.90;;;6.70;;
85314;SDS011;75718;50.886;11.656;2024-01-15T03:06:32;15.30;;;6.90;;
85314;SDS011;75718;50.886;11.656;2024-01-15T03:08:57;17.37;;;8.03;;
85314;SDS011;75718;50.886;11.656;2024-01-15T03:11:22;13.87;;;7.40;;
85314;SDS011;75718;50.886;11.656;2024-01-15T03:13:48;15.60;;;6.83;;
85314;SDS011;75718;50.886;11.656;2024-01-15T03:16:13;14.37;;;7.87;;
85314;SDS011;75718;50.886;11.656;2024-01-15T03:18:38;16.30;;;7.10;;
85314;SDS011;75718;50.886;11.656;2024-01-15T03:21:04;17.40;;;7.60;;
85314;SDS011;75718;50.886;11.656;2024-01-15T03:23:30;12.55;;;6.60;;
85314;SDS011;75718;50.886;11.656;2024-01-15T03:25:55;17.20;;;7.73;;
85314;SDS011;75718;50.886;11.656;2024-01-15T03:28:20;15.90;;;6.00;;
85314;SDS011;75718;50.886;11.656;2024-01-15T03:30:45;13.90;;;6.43;;
85314;SDS011;75718;50.886;11.656;2024-01-15T03:33:11;13.90;;;5.67;;
85314;SDS011;75718;50.886;11.656;2024-01-15T03:35:36;14.67;;;6.40;;
85314;SDS011;75718;50.886;11.656;2024-01-15T03:38:01;9.73;;;5.40;;
85314;SDS011;75718;50.886;11.656;2024-01-15T03:40:27;16.63;;;5.95;;
85314;SDS011;75718;50.886;11.656;2024-01-15T03:42:53;15.50;;;6.70;;
85314;SDS011;75718;50.886;11.656;2024-01-15T03:45:18;13.02;;;5.88;;
85314;SDS011;75718;50.886;11.656;2024-01-15T03:47:44;17.63;;;6.37;;
85314;SDS011;75718;50.886;11.656;2024-01-15T03:50:09;15.60;;;7.13;;
85314;SDS011;75718;50.886;11.656;2024-01-15T03:52:34;12.93;;;6.25;;
85314;SDS011;75718;50.886;11.656;2024-01-15T03:55:00;12.33;;;5.90;;
85314;SDS011;75718;50.886;11.656;2024-01-15T03:57:25;12.52;;;5.18;;
85314;SDS011;75718;50.886;11.656;2024-01-15T03:59:50;14.43;;;5.90;;
85314;SDS011;75718;50.886;11.656;2024-01-15T04:02:15;14.87;;;5.63;;
85314;SDS011;75718;50.886;11.656;2024-01-15T04:04:41;13.03;;;5.70;;
85314;SDS011;75718;50.886;11.656;2024-01-15T04:07:11;12.68;;;6.40;;
85314;SDS011;75718;50.886;11.656;2024-01-15T04:09:37;14.18;;;6.05;;
85314;SDS011;75718;50.886;11.656;2024-01-15T04:12:02;10.05;;;5.10;;
85314;SDS011;75718;50.886;11.656;2024-01-15T04:14:28;8.57;;;4.93;;
85314;SDS011;75718;50.886;11.656;2024-01-15T04:16:53;10.98;;;5.65;;
85314;SDS011;75718;50.886;11.656;2024-01-15T04:19:19;11.95;;;4.97;;
85314;SDS011;75718;50.886;11.656;2024-01-15T04:21:44;12.17;;;4.80;;
85314;SDS011;75718;50.886;11.656;2024-01-15T04:24:09;8.37;;;4.53;;
85314;SDS011;75718;50.886;11.656;2024-01-15T04:26:34;6.87;;;3.50;;
85314;SDS011;75718;50.886;11.656;2024-01-15T04:29:00;11.18;;;4.90;;
85314;SDS011;75718;50.886;11.656;2024-01-15T04:31:25;8.20;;;3.97;;
85314;SDS011;75718;50.886;11.656;2024-01-15T04:33:52;9.75;;;4.32;;
85314;SDS011;75718;50.886;11.656;2024-01-15T04:36:17;6.00;;;3.88;;
85314;SDS011;75718;50.886;11.656;2024-01-15T04:38:42;12.07;;;4.97;;
85314;SDS011;75718;50.886;11.656;2024-01-15T04:41:11;6.75;;;3.78;;
85314;SDS011;75718;50.886;11.656;2024-01-15T04:43:37;8.80;;;3.92;;
85314;SDS011;75718;50.886;11.656;2024-01-15T04:46:03;9.97;;;4.07;;
85314;SDS011;75718;50.886;11.656;2024-01-15T04:48:30;6.82;;;3.92;;
85314;SDS011;75718;50.886;11.656;2024-01-15T04:50:56;9.57;;;5.13;;
85314;SDS011;75718;50.886;11.656;2024-01-15T04:53:21;8.37;;;4.00;;
85314;SDS011;75718;50.886;11.656;2024-01-15T04:55:46;6.63;;;3.17;;
85314;SDS011;75718;50.886;11.656;2024-01-15T04:58:11;7.73;;;3.30;;
85314;SDS011;75718;50.886;11.656;2024-01-15T05:00:36;7.57;;;3.77;;
85314;SDS011;75718;50.886;11.656;2024-01-15T05:03:02;10.63;;;4.70;;
85314;SDS011;75718;50.886;11.656;2024-01-15T05:05:28;8.10;;;3.70;;
85314;SDS011;75718;50.886;11.656;2024-01-15T05:07:53;9.47;;;4.90;;
85314;SDS011;75718;50.886;11.656;2024-01-15T05:10:18;7.67;;;3.93;;
85314;SDS011;75718;50.886;11.656;2024-01-15T05:12:43;7.77;;;4.03;;
85314;SDS011;75718;50.886;11.656;2024-01-15T05:15:09;8.80;;;4.87;;
85314;SDS011;75718;50.886;11.656;2024-01-15T05:17:34;9.60;;;3.75;;
85314;SDS011;75718;50.886;11.656;2024-01-15T05:19:59;7.93;;;4.23;;
85314;SDS011;75718;50.886;11.656;2024-01-15T05:22:25;4.90;;;2.83;;
85314;SDS011;75718;50.886;11.656;2024-01-15T05:24:50;5.50;;;3.23;;
85314;SDS011;75718;50.886;11.656;2024-01-15T05:27:15;7.70;;;4.37;;
85314;SDS011;75718;50.886;11.656;2024-01-15T05:29:41;6.87;;;3.27;;
85314;SDS011;75718;50.886;11.656;2024-01-15T05:32:06;8.37;;;4.40;;
85314;SDS011;75718;50.886;11.656;2024-01-15T05:34:31;6.87;;;4.00;;
85314;SDS011;75718;50.886;11.656;2024-01-15T05:36:56;8.95;;;4.03;;
85314;SDS011;75718;50.886;11.656;2024-01-15T05:39:22;3.40;;;1.93;;
85314;SDS011;75718;50.886;11.656;2024-01-15T05:41:47;8.60;;;3.47;;
85314;SDS011;75718;50.886;11.656;2024-01-15T05:44:12;7.60;;;3.80;;
85314;SDS011;75718;50.886;11.656;2024-01-15T05:46:37;6.63;;;3.90;;
85314;SDS011;75718;50.886;11.656;2024-01-15T05:49:03;7.00;;;4.47;;
85314;SDS011;75718;50.886;11.656;2024-01-15T05:51:28;10.47;;;4.13;;
85314;SDS011;75718;50.886;11.656;2024-01-15T05:53:53;5.93;;;3.63;;
85314;SDS011;75718;50.886;11.656;2024-01-15T05:56:19;9.60;;;3.80;;
85314;SDS011;75718;50.886;11.656;2024-01-15T05:58:44;9.00;;;3.97;;
85314;SDS011;75718;50.886;11.656;2024-01-15T06:01:09;7.83;;;4.07;;
85314;SDS011;75718;50.886;11.656;2024-01-15T06:03:34;7.03;;;3.73;;
85314;SDS011;75718;50.886;11.656;2024-01-15T06:06:00;4.63;;;2.50;;
85314;SDS011;75718;50.886;11.656;2024-01-15T06:08:25;7.18;;;4.25;;
85314;SDS011;75718;50.886;11.656;2024-01-15T06:10:52;7.93;;;3.75;;
85314;SDS011;75718;50.886;11.656;2024-01-15T06:13:17;9.32;;;4.32;;
85314;SDS011;75718;50.886;11.656;2024-01-15T06:15:43;7.13;;;4.17;;
85314;SDS011;75718;50.886;11.656;2024-01-15T06:18:08;7.50;;;3.57;;
85314;SDS011;75718;50.886;11.656;2024-01-15T06:20:33;8.07;;;3.70;;
85314;SDS011;75718;50.886;11.656;2024-01-15T06:22:59;7.57;;;3.87;;
85314;SDS011;75718;50.886;11.656;2024-01-15T06:25:24;7.00;;;3.50;;
85314;SDS011;75718;50.886;11.656;2024-01-15T06:27:49;7.10;;;4.10;;
85314;SDS011;75718;50.886;11.656;2024-01-15T06:30:14;7.50;;;3.40;;
85314;SDS011;75718;50.886;11.656;2024-01-15T06:32:40;7.80;;;3.78;;
85314;SDS011;75718;50.886;11.656;2024-01-15T06:35:05;7.20;;;3.53;;
85314;SDS011;75718;50.886;11.656;2024-01-15T06:37:31;7.78;;;3.78;;
85314;SDS011;75718;50.886;11.656;2024-01-15T06:39:57;6.10;;;3.72;;
85314;SDS011;75718;50.886;11.656;2024-01-15T06:42:22;7.78;;;3.45;;
85314;SDS011;75718;50.886;11.656;2024-01-15T06:44:48;5.13;;;2.92;;
85314;SDS011;75718;50.886;11.656;2024-01-15T06:47:13;8.55;;;4.28;;
85314;SDS011;75718;50.886;11.656;2024-01-15T06:49:39;8.23;;;4.05;;
85314;SDS011;75718;50.886;11.656;2024-01-15T06:52:05;6.20;;;3.15;;
85314;SDS011;75718;50.886;11.656;2024-01-15T06:54:31;8.35;;;3.88;;
85314;SDS011;75718;50.886;11.656;2024-01-15T06:56:56;7.45;;;3.20;;
85314;SDS011;75718;50.886;11.656;2024-01-15T06:59:21;8.00;;;3.95;;
85314;SDS011;75718;50.886;11.656;2024-01-15T07:01:47;5.07;;;3.45;;
85314;SDS011;75718;50.886;11.656;2024-01-15T07:04:12;7.93;;;4.07;;
85314;SDS011;75718;50.886;11.656;2024-01-15T07:06:38;7.22;;;3.80;;
85314;SDS011;75718;50.886;11.656;2024-01-15T07:09:03;9.50;;;4.10;;
85314;SDS011;75718;50.886;11.656;2024-01-15T07:11:29;5.35;;;3.60;;
85314;SDS011;75718;50.886;11.656;2024-01-15T07:13:54;10.27;;;4.23;;
85314;SDS011;75718;50.886;11.656;2024-01-15T07:16:19;5.13;;;2.93;;
85314;SDS011;75718;50.886;11.656;2024-01-15T07:18:44;6.57;;;3.70;;
85314;SDS011;75718;50.886;11.656;2024-01-15T07:21:10;7.53;;;3.90;;
85314;SDS011;75718;50.886;11.656;2024-01-15T07:23:35;7.03;;;3.80;;
85314;SDS011;75718;50.886;11.656;2024-01-15T07:26:00;9.70;;;4.77;;
85314;SDS011;75718;50.886;11.656;2024-01-15T07:28:25;12.57;;;4.47;;
85314;SDS011;75718;50.886;11.656;2024-01-15T07:30:54;9.38;;;4.13;;
85314;SDS011;75718;50.886;11.656;2024-01-15T07:33:22;9.85;;;4.40;;
85314;SDS011;75718;50.886;11.656;2024-01-15T07:35:47;7.43;;;4.77;;
85314;SDS011;75718;50.886;11.656;2024-01-15T07:38:12;8.50;;;4.15;;
85314;SDS011;75718;50.886;11.656;2024-01-15T07:40:38;9.23;;;5.03;;
85314;SDS011;75718;50.886;11.656;2024-01-15T07:43:03;8.33;;;4.20;;
85314;SDS011;75718;50.886;11.656;2024-01-15T07:45:28;9.88;;;5.55;;
85314;SDS011;75718;50.886;11.656;2024-01-15T07:47:54;8.35;;;4.15;;
85314;SDS011;75718;50.886;11.656;2024-01-15T07:50:19;6.90;;;4.10;;
85314;SDS011;75718;50.886;11.656;2024-01-15T07:52:44;8.97;;;3.90;;
85314;SDS011;75718;50.886;11.656;2024-01-15T07:55:10;7.33;;;4.00;;
85314;SDS011;75718;50.886;11.656;2024-01-15T07:57:35;8.93;;;4.32;;
85314;SDS011;75718;50.886;11.656;2024-01-15T08:00:01;12.15;;;3.75;;
85314;SDS011;75718;50.886;11.656;2024-01-15T08:02:26;8.60;;;4.18;;
85314;SDS011;75718;50.886;11.656;2024-01-15T08:04:52;8.23;;;3.87;;
85314;SDS011;75718;50.886;11.656;2024-01-15T08:07:17;7.97;;;4.33;;
85314;SDS011;75718;50.886;11.656;2024-01-15T08:09:42;6.43;;;3.65;;
85314;SDS011;75718;50.886;11.656;2024-01-15T08:12:08;8.73;;;4.80;;
85314;SDS011;75718;50.886;11.656;2024-01-15T08:14:35;10.27;;;4.25;;
85314;SDS011;75718;50.886;11.656;2024-01-15T08:17:00;8.73;;;3.80;;
85314;SDS011;75718;50.886;11.656;2024-01-15T08:19:26;8.27;;;4.63;;
85314;SDS011;75718;50.886;11.656;2024-01-15T08:21:52;9.52;;;3.80;;
85314;SDS011;75718;50.886;11.656;2024-01-15T08:24:18;9.23;;;3.97;;
85314;SDS011;75718;50.886;11.656;2024-01-15T08:26:43;8.48;;;4.20;;
85314;SDS011;75718;50.886;11.656;2024-01-15T08:29:08;7.53;;;3.40;;
85314;SDS011;75718;50.886;11.656;2024-01-15T08:31:34;10.70;;;3.60;;
85314;SDS011;75718;50.886;11.656;2024-01-15T08:33:59;6.47;;;3.23;;
85314;SDS011;75718;50.886;11.656;2024-01-15T08:36:26;6.13;;;3.42;;
85314;SDS011;75718;50.886;11.656;2024-01-15T08:38:52;6.70;;;3.17;;
85314;SDS011;75718;50.886;11.656;2024-01-15T08:41:17;6.67;;;3.03;;
85314;SDS011;75718;50.886;11.656;2024-01-15T08:43:42;7.40;;;3.87;;
85314;SDS011;75718;50.886;11.656;2024-01-15T08:46:07;9.70;;;3.97;;
85314;SDS011;75718;50.886;11.656;2024-01-15T08:48:33;7.80;;;3.43;;
85314;SDS011;75718;50.886;11.656;2024-01-15T08:50:58;7.78;;;3.72;;
85314;SDS011;75718;50.886;11.656;2024-01-15T08:53:23;5.67;;;3.40;;
85314;SDS011;75718;50.886;11.656;2024-01-15T08:55:49;7.20;;;3.53;;
85314;SDS011;75718;50.886;11.656;2024-01-15T08:58:14;7.47;;;3.50;;
85314;SDS011;75718;50.886;11.656;2024-01-15T09:00:40;7.13;;;2.65;;
85314;SDS011;75718;50.886;11.656;2024-01-15T09:03:05;6.57;;;3.45;;
85314;SDS011;75718;50.886;11.656;2024-01-15T09:05:31;6.10;;;3.22;;
85314;SDS011;75718;50.886;11.656;2024-01-15T09:07:56;5.15;;;3.22;;
85314;SDS011;75718;50.886;11.656;2024-01-15T09:10:22;8.03;;;3.57;;
85314;SDS011;75718;50.886;11.656;2024-01-15T09:12:47;5.72;;;3.00;;
85314;SDS011;75718;50.886;11.656;2024-01-15T09:15:14;7.50;;;3.50;;
85314;SDS011;75718;50.886;11.656;2024-01-15T09:17:39;10.52;;;4.25;;
85314;SDS011;75718;50.886;11.656;2024-01-15T09:20:05;6.87;;;3.43;;
85314;SDS011;75718;50.886;11.656;2024-01-15T09:22:31;7.07;;;3.35;;
85314;SDS011;75718;50.886;11.656;2024-01-15T09:24:56;7.47;;;3.72;;
85314;SDS011;75718;50.886;11.656;2024-01-15T09:27:22;7.88;;;4.07;;
85314;SDS011;75718;50.886;11.656;2024-01-15T09:29:47;5.55;;;3.38;;
85314;SDS011;75718;50.886;11.656;2024-01-15T09:32:12;7.70;;;3.65;;
85314;SDS011;75718;50.886;11.656;2024-01-15T09:34:38;7.63;;;3.30;;
85314;SDS011;75718;50.886;11.656;2024-01-15T09:37:04;8.45;;;3.90;;
85314;SDS011;75718;50.886;11.656;2024-01-15T09:39:29;7.03;;;4.18;;
85314;SDS011;75718;50.886;11.656;2024-01-15T09:41:55;6.70;;;3.13;;
85314;SDS011;75718;50.886;11.656;2024-01-15T09:44:22;6.45;;;3.08;;
85314;SDS011;75718;50.886;11.656;2024-01-15T09:46:48;7.03;;;3.58;;
85314;SDS011;75718;50.886;11.656;2024-01-15T09:49:15;6.18;;;3.75;;
85314;SDS011;75718;50.886;11.656;2024-01-15T09:51:41;7.78;;;3.88;;
85314;SDS011;75718;50.886;11.656;2024-01-15T09:54:07;6.53;;;3.95;;
85314;SDS011;75718;50.886;11.656;2024-01-15T09:56:33;6.18;;;3.40;;
85314;SDS011;75718;50.886;11.656;2024-01-15T09:58:59;6.57;;;3.85;;
85314;SDS011;75718;50.886;11.656;2024-01-15T10:01:25;8.05;;;4.18;;
85314;SDS011;75718;50.886;11.656;2024-01-15T10:03:51;7.55;;;3.58;;
85314;SDS011;75718;50.886;11.656;2024-01-15T10:06:16;8.13;;;3.77;;
85314;SDS011;75718;50.886;11.656;2024-01-15T10:08:44;7.00;;;3.45;;
85314;SDS011;75718;50.886;11.656;2024-01-15T10:11:13;5.72;;;3.13;;
85314;SDS011;75718;50.886;11.656;2024-01-15T10:13:39;7.03;;;3.73;;
85314;SDS011;75718;50.886;11.656;2024-01-15T10:16:04;6.72;;;3.15;;
85314;SDS011;75718;50.886;11.656;2024-01-15T10:18:30;8.07;;;3.60;;
85314;SDS011;75718;50.886;11.656;2024-01-15T10:20:56;5.00;;;2.87;;
85314;SDS011;75718;50.886;11.656;2024-01-15T10:23:22;5.82;;;2.75;;
85314;SDS011;75718;50.886;11.656;2024-01-15T10:25:48;8.60;;;2.70;;
85314;SDS011;75718;50.886;11.656;2024-01-15T10:28:14;8.93;;;3.45;;
85314;SDS011;75718;50.886;11.656;2024-01-15T10:30:39;6.57;;;3.20;;
85314;SDS011;75718;50.886;11.656;2024-01-15T10:33:04;10.60;;;3.20;;
85314;SDS011;75718;50.886;11.656;2024-01-15T10:35:30;6.53;;;3.63;;
85314;SDS011;75718;50.886;11.656;2024-01-15T10:37:56;4.65;;;3.00;;
85314;SDS011;75718;50.886;11.656;2024-01-15T10:40:22;6.53;;;3.05;;
85314;SDS011;75718;50.886;11.656;2024-01-15T10:42:48;4.97;;;2.15;;
85314;SDS011;75718;50.886;11.656;2024-01-15T10:45:13;4.70;;;2.87;;
85314;SDS011;75718;50.886;11.656;2024-01-15T10:47:39;7.50;;;3.22;;
85314;SDS011;75718;50.886;11.656;2024-01-15T10:50:06;6.78;;;3.25;;
85314;SDS011;75718;50.886;11.656;2024-01-15T10:52:33;5.93;;;3.03;;
85314;SDS011;75718;50.886;11.656;2024-01-15T10:54:59;6.78;;;3.28;;
85314;SDS011;75718;50.886;11.656;2024-01-15T10:57:25;8.60;;;3.00;;
85314;SDS011;75718;50.886;11.656;2024-01-15T10:59:53;5.93;;;3.05;;
85314;SDS011;75718;50.886;11.656;2024-01-15T11:02:18;4.10;;;2.87;;
85314;SDS011;75718;50.886;11.656;2024-01-15T11:04:43;4.57;;;2.65;;
85314;SDS011;75718;50.886;11.656;2024-01-15T11:07:09;5.30;;;2.83;;
85314;SDS011;75718;50.886;11.656;2024-01-15T11:09:36;5.03;;;2.45;;
85314;SDS011;75718;50.886;11.656;2024-01-15T11:12:11;6.15;;;2.15;;
85314;SDS011;75718;50.886;11.656;2024-01-15T11:14:38;4.28;;;2.60;;
85314;SDS011;75718;50.886;11.656;2024-01-15T11:17:05;3.10;;;1.85;;
85314;SDS011;75718;50.886;11.656;2024-01-15T11:19:51;5.07;;;2.47;;
85314;SDS011;75718;50.886;11.656;2024-01-15T11:24:57;6.13;;;2.60;;
85314;SDS011;75718;50.886;11.656;2024-01-15T11:27:40;7.10;;;2.42;;
85314;SDS011;75718;50.886;11.656;2024-01-15T11:32:36;3.95;;;2.15;;
85314;SDS011;75718;50.886;11.656;2024-01-15T11:35:01;5.90;;;2.63;;
85314;SDS011;75718;50.886;11.656;2024-01-15T11:38:13;3.58;;;2.47;;
85314;SDS011;75718;50.886;11.656;2024-01-15T11:42:57;7.30;;;2.58;;
85314;SDS011;75718;50.886;11.656;2024-01-15T11:45:23;5.57;;;2.67;;
85314;SDS011;75718;50.886;11.656;2024-01-15T11:50:43;4.78;;;2.17;;
85314;SDS011;75718;50.886;11.656;2024-01-15T11:56:01;4.28;;;2.67;;
85314;SDS011;75718;50.886;11.656;2024-01-15T11:58:27;4.75;;;2.13;;
85314;SDS011;75718;50.886;11.656;2024-01-15T12:00:53;3.25;;;1.70;;
85314;SDS011;75718;50.886;11.656;2024-01-15T12:03:23;6.93;;;2.33;;
85314;SDS011;75718;50.886;11.656;2024-01-15T12:05:48;3.90;;;2.78;;
85314;SDS011;75718;50.886;11.656;2024-01-15T12:08:14;4.07;;;2.05;;
85314;SDS011;75718;50.886;11.656;2024-01-15T12:10:39;3.47;;;1.60;;
85314;SDS011;75718;50.886;11.656;2024-01-15T12:13:15;3.58;;;1.90;;
85314;SDS011;75718;50.886;11.656;2024-01-15T12:15:42;3.85;;;2.15;;
85314;SDS011;75718;50.886;11.656;2024-01-15T12:18:09;4.85;;;1.73;;
85314;SDS011;75718;50.886;11.656;2024-01-15T12:20:35;4.95;;;2.00;;
85314;SDS011;75718;50.886;11.656;2024-01-15T12:23:02;4.75;;;2.20;;
85314;SDS011;75718;50.886;11.656;2024-01-15T12:25:35;4.93;;;1.90;;
85314;SDS011;75718;50.886;11.656;2024-01-15T12:28:00;3.60;;;1.67;;
85314;SDS011;75718;50.886;11.656;2024-01-15T12:30:27;3.22;;;2.00;;
85314;SDS011;75718;50.886;11.656;2024-01-15T12:32:54;3.72;;;1.50;;
85314;SDS011;75718;50.886;11.656;2024-01-15T12:35:20;5.28;;;2.35;;
85314;SDS011;75718;50.886;11.656;2024-01-15T12:37:45;4.43;;;2.20;;
85314;SDS011;75718;50.886;11.656;2024-01-15T12:40:12;3.58;;;1.90;;
85314;SDS011;75718;50.886;11.656;2024-01-15T12:42:40;3.60;;;2.22;;
85314;SDS011;75718;50.886;11.656;2024-01-15T12:45:06;4.90;;;2.40;;
85314;SDS011;75718;50.886;11.656;2024-01-15T12:47:33;3.10;;;1.88;;
85314;SDS011;75718;50.886;11.656;2024-01-15T12:49:58;4.38;;;2.40;;
85314;SDS011;75718;50.886;11.656;2024-01-15T12:52:27;3.85;;;2.03;;
85314;SDS011;75718;50.886;11.656;2024-01-15T12:54:53;6.88;;;2.08;;
85314;SDS011;75718;50.886;11.656;2024-01-15T12:57:18;4.32;;;1.40;;
85314;SDS011;75718;50.886;11.656;2024-01-15T12:59:44;3.73;;;2.07;;
85314;SDS011;75718;50.886;11.656;2024-01-15T13:02:10;4.97;;;2.75;;
85314;SDS011;75718;50.886;11.656;2024-01-15T13:04:37;3.92;;;1.83;;
85314;SDS011;75718;50.886;11.656;2024-01-15T13:07:03;5.60;;;2.33;;
85314;SDS011;75718;50.886;11.656;2024-01-15T13:09:29;3.92;;;2.10;;
85314;SDS011;75718;50.886;11.656;2024-01-15T13:11:55;3.60;;;1.90;;
85314;SDS011;75718;50.886;11.656;2024-01-15T13:14:20;3.53;;;2.00;;
85314;SDS011;75718;50.886;11.656;2024-01-15T13:16:46;5.38;;;2.05;;
85314;SDS011;75718;50.886;11.656;2024-01-15T13:19:11;4.68;;;1.92;;
85314;SDS011;75718;50.886;11.656;2024-01-15T13:21:37;2.78;;;1.52;;
85314;SDS011;75718;50.886;11.656;2024-01-15T13:24:06;2.88;;;2.00;;
85314;SDS011;75718;50.886;11.656;2024-01-15T13:26:32;5.18;;;3.03;;
85314;SDS011;75718;50.886;11.656;2024-01-15T13:29:01;2.92;;;1.92;;
85314;SDS011;75718;50.886;11.656;2024-01-15T13:31:28;5.35;;;2.30;;
85314;SDS011;75718;50.886;11.656;2024-01-15T13:33:54;3.88;;;2.25;;
85314;SDS011;75718;50.886;11.656;2024-01-15T13:36:20;3.15;;;2.08;;
85314;SDS011;75718;50.886;11.656;2024-01-15T13:38:46;4.97;;;2.60;;
85314;SDS011;75718;50.886;11.656;2024-01-15T13:41:11;4.70;;;2.53;;
85314;SDS011;75718;50.886;11.656;2024-01-15T13:43:37;5.07;;;1.63;;
85314;SDS011;75718;50.886;11.656;2024-01-15T13:46:02;5.03;;;2.40;;
85314;SDS011;75718;50.886;11.656;2024-01-15T13:48:29;5.38;;;2.33;;
85314;SDS011;75718;50.886;11.656;2024-01-15T13:50:55;4.53;;;2.35;;
85314;SDS011;75718;50.886;11.656;2024-01-15T13:53:20;5.22;;;3.08;;
85314;SDS011;75718;50.886;11.656;2024-01-15T13:55:45;4.20;;;2.33;;
85314;SDS011;75718;50.886;11.656;2024-01-15T13:58:11;3.97;;;2.03;;
85314;SDS011;75718;50.886;11.656;2024-01-15T14:00:37;4.75;;;2.33;;
85314;SDS011;75718;50.886;11.656;2024-01-15T14:03:04;4.50;;;2.25;;
85314;SDS011;75718;50.886;11.656;2024-01-15T14:05:30;5.28;;;3.58;;
85314;SDS011;75718;50.886;11.656;2024-01-15T14:07:55;5.72;;;2.67;;
85314;SDS011;75718;50.886;11.656;2024-01-15T14:10:20;4.33;;;2.47;;
85314;SDS011;75718;50.886;11.656;2024-01-15T14:12:45;4.27;;;2.50;;
85314;SDS011;75718;50.886;11.656;2024-01-15T14:15:11;5.00;;;2.63;;
85314;SDS011;75718;50.886;11.656;2024-01-15T14:17:37;5.53;;;2.60;;
85314;SDS011;75718;50.886;11.656;2024-01-15T14:20:02;7.97;;;2.92;;
85314;SDS011;75718;50.886;11.656;2024-01-15T14:22:30;5.72;;;3.03;;
85314;SDS011;75718;50.886;11.656;2024-01-15T14:24:55;5.88;;;3.33;;
85314;SDS011;75718;50.886;11.656;2024-01-15T14:27:20;2.53;;;2.03;;
85314;SDS011;75718;50.886;11.656;2024-01-15T14:29:46;6.72;;;2.75;;
85314;SDS011;75718;50.886;11.656;2024-01-15T14:32:11;4.03;;;2.20;;
85314;SDS011;75718;50.886;11.656;2024-01-15T14:34:37;4.67;;;2.10;;
85314;SDS011;75718;50.886;11.656;2024-01-15T14:37:02;5.03;;;2.97;;